sensor_id;sensor_type;location;lat;lon;timestamp;P1;durP1;ratioP1;P2;durP2;ratioP2
42666;SDS011;28280;49.646;14.130;2023-04-22T00:02:51;3.72;;;2.60;;
42666;SDS011;28280;49.646;14.130;2023-04-22T00:13:13;4.47;;;2.95;;
42666;SDS011;28280;49.646;14.130;2023-04-22T00:23:35;7.35;;;3.00;;
42666;SDS011;28280;49.646;14.130;2023-04-22T00:33:56;4.10;;;2.90;;
42666;SDS011;28280;49.646;14.130;2023-04-22T00:44:18;5.63;;;2.97;;
42666;SDS011;28280;49.646;14.130;2023-04-22T00:54:39;4.10;;;2.92;;
42666;SDS011;28280;49.646;14.130;2023-04-22T01:05:00;5.40;;;2.80;;
42666;SDS011;28280;49.646;14.130;2023-04-22T01:15:22;5.28;;;3.05;;
42666;SDS011;28280;49.646;14.130;2023-04-22T01:25:44;5.50;;;2.95;;
42666;SDS011;28280;49.646;14.130;2023-04-22T01:36:07;4.82;;;2.72;;
42666;SDS011;28280;49.646;14.130;2023-04-22T01:46:32;5.15;;;3.25;;
42666;SDS011;28280;49.646;14.130;2023-04-22T01:56:54;7.35;;;3.05;;
42666;SDS011;28280;49.646;14.130;2023-04-22T02:07:15;4.38;;;2.95;;
42666;SDS011;28280;49.646;14.130;2023-04-22T02:17:37;6.65;;;3.25;;
42666;SDS011;28280;49.646;14.130;2023-04-22T02:27:59;4.63;;;3.10;;
42666;SDS011;28280;49.646;14.130;2023-04-22T02:38:20;6.00;;;3.20;;
42666;SDS011;28280;49.646;14.130;2023-04-22T02:48:42;4.68;;;2.67;;
42666;SDS011;28280;49.646;14.130;2023-04-22T02:59:04;5.40;;;3.03;;
42666;SDS011;28280;49.646;14.130;2023-04-22T03:09:25;5.38;;;3.17;;
42666;SDS011;28280;49.646;14.130;2023-04-22T03:19:47;5.55;;;2.63;;
42666;SDS011;28280;49.646;14.130;2023-04-22T03:30:08;4.43;;;3.03;;
42666;SDS011;28280;49.646;14.130;2023-04-22T03:40:30;5.78;;;3.67;;
42666;SDS011;28280;49.646;14.130;2023-04-22T03:50:54;5.07;;;3.00;;
42666;SDS011;28280;49.646;14.130;2023-04-22T04:01:17;5.82;;;3.25;;
42666;SDS011;28280;49.646;14.130;2023-04-22T04:11:43;3.53;;;2.92;;
42666;SDS011;28280;49.646;14.130;2023-04-22T04:22:05;4.80;;;3.22;;
42666;SDS011;28280;49.646;14.130;2023-04-22T04:32:31;5.00;;;2.67;;
42666;SDS011;28280;49.646;14.130;2023-04-22T04:42:58;6.07;;;3.13;;
42666;SDS011;28280;49.646;14.130;2023-04-22T04:53:28;4.55;;;3.00;;
42666;SDS011;28280;49.646;14.130;2023-04-22T05:03:50;3.90;;;2.67;;
42666;SDS011;28280;49.646;14.130;2023-04-22T05:14:13;6.55;;;2.85;;
42666;SDS011;28280;49.646;14.130;2023-04-22T05:24:35;5.68;;;2.92;;
42666;SDS011;28280;49.646;14.130;2023-04-22T05:34:58;4.07;;;3.53;;
42666;SDS011;28280;49.646;14.130;2023-04-22T05:45:20;5.18;;;3.15;;
42666;SDS011;28280;49.646;14.130;2023-04-22T05:55:41;7.82;;;3.00;;
42666;SDS011;28280;49.646;14.130;2023-04-22T06:06:04;3.65;;;2.75;;
42666;SDS011;28280;49.646;14.130;2023-04-22T06:16:26;4.95;;;3.13;;
42666;SDS011;28280;49.646;14.130;2023-04-22T06:26:52;6.73;;;3.50;;
42666;SDS011;28280;49.646;14.130;2023-04-22T06:37:14;4.97;;;3.33;;
42666;SDS011;28280;49.646;14.130;2023-04-22T06:47:38;4.88;;;3.22;;
42666;SDS011;28280;49.646;14.130;2023-04-22T06:58:06;5.38;;;3.60;;
42666;SDS011;28280;49.646;14.130;2023-04-22T07:08:28;5.15;;;3.53;;
42666;SDS011;28280;49.646;14.130;2023-04-22T07:18:49;5.50;;;3.63;;
42666;SDS011;28280;49.646;14.130;2023-04-22T07:29:11;6.57;;;3.88;;
42666;SDS011;28280;49.646;14.130;2023-04-22T07:39:35;7.93;;;3.70;;
42666;SDS011;28280;49.646;14.130;2023-04-22T07:49:57;5.40;;;3.80;;
42666;SDS011;28280;49.646;14.130;2023-04-22T08:00:19;5.60;;;3.60;;
42666;SDS011;28280;49.646;14.130;2023-04-22T08:10:40;6.15;;;4.05;;
42666;SDS011;28280;49.646;14.130;2023-04-22T08:21:02;6.75;;;3.72;;
42666;SDS011;28280;49.646;14.130;2023-04-22T08:31:23;5.05;;;3.65;;
42666;SDS011;28280;49.646;14.130;2023-04-22T08:41:45;6.03;;;3.85;;
42666;SDS011;28280;49.646;14.130;2023-04-22T08:52:07;8.95;;;3.78;;
42666;SDS011;28280;49.646;14.130;2023-04-22T09:02:30;6.82;;;3.25;;
42666;SDS011;28280;49.646;14.130;2023-04-22T09:12:52;5.15;;;3.15;;
42666;SDS011;28280;49.646;14.130;2023-04-22T09:23:14;9.55;;;3.20;;
42666;SDS011;28280;49.646;14.130;2023-04-22T09:33:37;5.95;;;3.30;;
42666;SDS011;28280;49.646;14.130;2023-04-22T09:44:00;5.25;;;3.42;;
42666;SDS011;28280;49.646;14.130;2023-04-22T09:54:23;8.38;;;3.17;;
42666;SDS011;28280;49.646;14.130;2023-04-22T10:04:44;5.78;;;3.22;;
42666;SDS011;28280;49.646;14.130;2023-04-22T10:15:07;5.70;;;3.30;;
42666;SDS011;28280;49.646;14.130;2023-04-22T10:25:28;5.70;;;3.10;;
42666;SDS011;28280;49.646;14.130;2023-04-22T10:36:06;3.72;;;2.60;;
42666;SDS011;28280;49.646;14.130;2023-04-22T10:57:36;4.95;;;2.95;;
42666;SDS011;28280;49.646;14.130;2023-04-22T11:07:40;5.68;;;2.85;;
42666;SDS011;28280;49.646;14.130;2023-04-22T11:18:01;5.25;;;3.00;;
42666;SDS011;28280;49.646;14.130;2023-04-22T11:28:23;5.00;;;3.08;;
42666;SDS011;28280;49.646;14.130;2023-04-22T11:38:54;4.35;;;2.90;;
42666;SDS011;28280;49.646;14.130;2023-04-22T11:49:16;5.18;;;2.67;;
42666;SDS011;28280;49.646;14.130;2023-04-22T11:59:37;7.60;;;3.03;;
42666;SDS011;28280;49.646;14.130;2023-04-22T12:09:59;4.15;;;2.75;;
42666;SDS011;28280;49.646;14.130;2023-04-22T12:20:22;4.43;;;2.78;;
42666;SDS011;28280;49.646;14.130;2023-04-22T12:30:44;4.40;;;2.60;;
42666;SDS011;28280;49.646;14.130;2023-04-22T12:41:06;6.10;;;2.92;;
42666;SDS011;28280;49.646;14.130;2023-04-22T12:51:27;5.25;;;3.03;;
42666;SDS011;28280;49.646;14.130;2023-04-22T13:01:48;3.85;;;2.60;;
42666;SDS011;28280;49.646;14.130;2023-04-22T13:12:10;3.10;;;2.50;;
42666;SDS011;28280;49.646;14.130;2023-04-22T13:22:32;7.18;;;2.88;;
42666;SDS011;28280;49.646;14.130;2023-04-22T13:32:53;3.90;;;2.67;;
42666;SDS011;28280;49.646;14.130;2023-04-22T13:43:15;3.97;;;2.28;;
42666;SDS011;28280;49.646;14.130;2023-04-22T13:53:36;4.20;;;2.78;;
42666;SDS011;28280;49.646;14.130;2023-04-22T14:03:57;5.07;;;2.47;;
42666;SDS011;28280;49.646;14.130;2023-04-22T14:14:19;5.13;;;2.75;;
42666;SDS011;28280;49.646;14.130;2023-04-22T14:24:41;6.05;;;3.10;;
42666;SDS011;28280;49.646;14.130;2023-04-22T14:35:02;6.18;;;2.75;;
42666;SDS011;28280;49.646;14.130;2023-04-22T14:45:24;5.40;;;2.50;;
42666;SDS011;28280;49.646;14.130;2023-04-22T14:55:49;4.37;;;2.60;;
42666;SDS011;28280;49.646;14.130;2023-04-22T15:06:10;5.22;;;2.53;;
42666;SDS011;28280;49.646;14.130;2023-04-22T15:16:32;4.32;;;2.67;;
42666;SDS011;28280;49.646;14.130;2023-04-22T15:26:54;4.45;;;2.70;;
42666;SDS011;28280;49.646;14.130;2023-04-22T15:37:16;2.90;;;2.25;;
42666;SDS011;28280;49.646;14.130;2023-04-22T15:47:38;4.75;;;2.53;;
42666;SDS011;28280;49.646;14.130;2023-04-22T15:58:01;3.45;;;2.55;;
42666;SDS011;28280;49.646;14.130;2023-04-22T16:08:23;4.97;;;2.63;;
42666;SDS011;28280;49.646;14.130;2023-04-22T16:18:44;4.93;;;2.80;;
42666;SDS011;28280;49.646;14.130;2023-04-22T16:29:05;3.55;;;2.58;;
42666;SDS011;28280;49.646;14.130;2023-04-22T16:39:27;3.05;;;2.33;;
42666;SDS011;28280;49.646;14.130;2023-04-22T16:49:48;2.50;;;2.00;;
42666;SDS011;28280;49.646;14.130;2023-04-22T17:00:10;3.22;;;2.75;;
42666;SDS011;28280;49.646;14.130;2023-04-22T17:10:32;2.97;;;2.17;;
42666;SDS011;28280;49.646;14.130;2023-04-22T17:20:54;3.58;;;2.70;;
42666;SDS011;28280;49.646;14.130;2023-04-22T17:31:16;3.25;;;2.45;;
42666;SDS011;28280;49.646;14.130;2023-04-22T17:41:37;1999.90;;;845.63;;
42666;SDS011;28280;49.646;14.130;2023-04-22T17:51:59;1844.15;;;697.72;;
42666;SDS011;28280;49.646;14.130;2023-04-22T18:02:20;834.25;;;331.45;;
42666;SDS011;28280;49.646;14.130;2023-04-22T18:12:42;486.63;;;171.15;;
42666;SDS011;28280;49.646;14.130;2023-04-22T18:23:04;386.65;;;123.70;;
42666;SDS011;28280;49.646;14.130;2023-04-22T18:33:25;238.40;;;76.32;;
42666;SDS011;28280;49.646;14.130;2023-04-22T18:43:47;185.98;;;62.47;;
42666;SDS011;28280;49.646;14.130;2023-04-22T18:54:09;160.70;;;52.10;;
42666;SDS011;28280;49.646;14.130;2023-04-22T19:04:30;135.40;;;44.78;;
42666;SDS011;28280;49.646;14.130;2023-04-22T19:14:52;118.03;;;39.72;;
42666;SDS011;28280;49.646;14.130;2023-04-22T19:25:13;106.80;;;36.20;;
42666;SDS011;28280;49.646;14.130;2023-04-22T19:35:34;96.22;;;32.20;;
42666;SDS011;28280;49.646;14.130;2023-04-22T19:45:55;84.38;;;30.25;;
42666;SDS011;28280;49.646;14.130;2023-04-22T19:56:17;75.13;;;28.17;;
42666;SDS011;28280;49.646;14.130;2023-04-22T20:06:39;68.43;;;25.75;;
42666;SDS011;28280;49.646;14.130;2023-04-22T20:17:00;60.53;;;22.75;;
42666;SDS011;28280;49.646;14.130;2023-04-22T20:27:22;56.97;;;21.15;;
42666;SDS011;28280;49.646;14.130;2023-04-22T20:37:45;45.75;;;17.63;;
42666;SDS011;28280;49.646;14.130;2023-04-22T20:48:08;44.75;;;17.27;;
42666;SDS011;28280;49.646;14.130;2023-04-22T20:58:29;41.80;;;16.67;;
42666;SDS011;28280;49.646;14.130;2023-04-22T21:08:53;34.65;;;14.23;;
42666;SDS011;28280;49.646;14.130;2023-04-22T21:19:14;34.35;;;13.40;;
42666;SDS011;28280;49.646;14.130;2023-04-22T21:29:36;32.85;;;12.98;;
42666;SDS011;28280;49.646;14.130;2023-04-22T21:39:58;29.02;;;11.85;;
42666;SDS011;28280;49.646;14.130;2023-04-22T21:50:19;27.70;;;11.07;;
42666;SDS011;28280;49.646;14.130;2023-04-22T22:00:41;26.48;;;11.10;;
42666;SDS011;28280;49.646;14.130;2023-04-22T22:11:03;24.13;;;9.70;;
42666;SDS011;28280;49.646;14.130;2023-04-22T22:21:27;20.40;;;8.50;;
42666;SDS011;28280;49.646;14.130;2023-04-22T22:31:48;19.40;;;7.93;;
42666;SDS011;28280;49.646;14.130;2023-04-22T22:42:10;20.20;;;8.63;;
42666;SDS011;28280;49.646;14.130;2023-04-22T22:52:31;19.83;;;8.00;;
42666;SDS011;28280;49.646;14.130;2023-04-22T23:02:52;18.33;;;8.07;;
42666;SDS011;28280;49.646;14.130;2023-04-22T23:13:14;13.60;;;6.53;;
42666;SDS011;28280;49.646;14.130;2023-04-22T23:23:35;14.90;;;6.50;;
42666;SDS011;28280;49.646;14.130;2023-04-22T23:34:01;11.98;;;6.38;;
42666;SDS011;28280;49.646;14.130;2023-04-22T23:44:24;15.25;;;6.18;;
42666;SDS011;28280;49.646;14.130;2023-04-22T23:54:45;11.80;;;5.68;;
